Time;durP1;ratioP1;P1;durP2;ratioP2;P2;SDS_P1;SDS_P2;PMS_P1;PMS_P2;Temp;Humidity;BMP_temperature;BMP_pressure;BME280_temperature;BME280_humidity;BME280_pressure;Samples;Min_cycle;Max_cycle;Signal;HPM_P1;HPM_P2
2022/12/23 00:02:16;;;;;;;;;;;16.30;91.00;;;;;;5079704;28;19919;-92
2022/12/23 00:04:42;;;;;;;;;;;16.30;90.90;;;;;;5079537;28;20217;-92
2022/12/23 00:07:07;;;;;;;;;;;16.30;90.90;;;;;;5079285;28;20291;-92
2022/12/23 00:09:33;;;;;;;;;;;16.30;90.80;;;;;;5078605;28;20297;-92
2022/12/23 00:17:27;;;;;;;;;;;16.30;90.70;;;;;;5096958;28;20197;-93
2022/12/23 00:19:53;;;;;;;;;;;16.40;90.80;;;;;;5080758;28;19908;-93
2022/12/23 00:22:18;;;;;;;;;;;16.30;90.70;;;;;;5080251;28;20159;-93
2022/12/23 00:24:44;;;;;;;;;;;16.30;90.70;;;;;;5081280;28;19962;-93
2022/12/23 00:27:09;;;;;;;;;;;16.30;90.70;;;;;;5081690;28;19938;-92
2022/12/23 00:29:35;;;;;;;;;;;16.30;90.70;;;;;;5080084;28;19977;-91
2022/12/23 00:32:01;;;;;;;;;;;16.40;90.70;;;;;;5079308;28;19908;-92
2022/12/23 00:34:26;;;;;;;;;;;16.40;90.70;;;;;;5079492;28;19912;-92
2022/12/23 00:36:52;;;;;;;;;;;16.30;90.70;;;;;;5080281;28;19959;-92
2022/12/23 00:44:46;;;;;;;;;;;16.30;90.60;;;;;;5095489;28;20208;-92
2022/12/23 00:49:40;;;;;;;;;;;16.30;90.60;;;;;;5078206;28;19912;-92
2022/12/23 00:49:57;;;;;;;;;;;16.30;90.60;;;;;;5095385;28;20345;-92
2022/12/23 00:52:23;;;;;;;;;;;16.30;90.60;;;;;;5077845;28;19991;-91
2022/12/23 00:54:49;;;;;;;;;;;16.30;90.60;;;;;;5078603;28;20195;-92
2022/12/23 00:57:14;;;;;;;;;;;16.40;90.70;;;;;;5076563;28;19985;-92
2022/12/23 00:59:40;;;;;;;;;;;16.30;90.60;;;;;;5077914;28;19908;-93
2022/12/23 01:07:34;;;;;;;;;;;16.30;90.70;;;;;;5095225;28;19934;-93
2022/12/23 01:09:59;;;;;;;;;;;16.30;90.70;;;;;;5079160;28;19911;-93
2022/12/23 01:12:25;;;;;;;;;;;16.30;90.70;;;;;;5078056;28;19930;-93
2022/12/23 01:14:50;;;;;;;;;;;16.30;90.70;;;;;;5077127;28;19919;-93
2022/12/23 01:17:16;;;;;;;;;;;16.30;90.80;;;;;;5074600;28;19974;-93
2022/12/23 01:19:41;;;;;;;;;;;16.30;91.00;;;;;;5075393;28;19912;-93
2022/12/23 01:22:09;;;;;;;;;;;16.30;90.80;;;;;;5073550;28;20141;-92
2022/12/23 01:24:35;;;;;;;;;;;16.30;90.80;;;;;;5074862;28;19932;-93
2022/12/23 01:27:00;;;;;;;;;;;16.30;90.90;;;;;;5074698;28;19908;-93
2022/12/23 01:29:27;;;;;;;;;;;16.30;90.90;;;;;;5078327;28;20285;-93
2022/12/23 01:31:53;;;;;;;;;;;16.30;90.90;;;;;;5077958;28;19908;-93
2022/12/23 01:34:18;;;;;;;;;;;16.20;90.80;;;;;;5079357;28;19958;-93
2022/12/23 01:36:44;;;;;;;;;;;16.20;90.80;;;;;;5081147;28;19908;-93
2022/12/23 01:39:09;;;;;;;;;;;16.20;90.90;;;;;;5080514;28;19932;-93
2022/12/23 01:44:38;;;;;;;;;;;16.20;90.90;;;;;;5098291;28;19977;-93
2022/12/23 01:47:08;;;;;;;;;;;16.20;91.00;;;;;;5080009;28;19908;-93
2022/12/23 01:49:34;;;;;;;;;;;16.20;91.00;;;;;;5080353;28;19908;-93
2022/12/23 01:52:00;;;;;;;;;;;16.20;91.00;;;;;;5081411;28;19924;-93
2022/12/23 01:54:26;;;;;;;;;;;16.20;91.00;;;;;;5082686;28;19908;-93
2022/12/23 01:56:51;;;;;;;;;;;16.20;91.00;;;;;;5080327;28;19908;-93
2022/12/23 02:04:46;;;;;;;;;;;16.20;91.10;;;;;;5100424;28;19919;-91
2022/12/23 02:09:58;;;;;;;;;;;16.20;91.10;;;;;;5098579;28;19920;-93
2022/12/23 02:12:39;;;;;;;;;;;16.10;91.10;;;;;;5079901;28;19908;-93
2022/12/23 02:17:58;;;;;;;;;;;16.20;91.10;;;;;;5088263;28;19950;-93
2022/12/23 02:20:32;;;;;;;;;;;16.20;91.20;;;;;;5084564;28;19931;-92
2022/12/23 02:23:11;;;;;;;;;;;16.10;91.10;;;;;;5082139;28;19907;-93
2022/12/23 02:25:48;;;;;;;;;;;16.20;91.20;;;;;;5081333;28;19908;-93
2022/12/23 02:28:33;;;;;;;;;;;16.10;91.20;;;;;;5080470;28;20220;-93
2022/12/23 02:31:09;;;;;;;;;;;16.10;91.20;;;;;;5079843;28;19985;-93
2022/12/23 02:33:50;;;;;;;;;;;16.20;91.20;;;;;;5081586;28;20015;-93
2022/12/23 02:36:31;;;;;;;;;;;16.20;91.20;;;;;;5079695;28;19916;-92
2022/12/23 02:39:17;;;;;;;;;;;16.20;91.20;;;;;;5079556;28;19916;-93
2022/12/23 02:42:05;;;;;;;;;;;16.10;91.10;;;;;;5079352;28;19912;-92
2022/12/23 02:44:43;;;;;;;;;;;16.20;91.10;;;;;;5079037;28;19908;-93
2022/12/23 02:47:23;;;;;;;;;;;16.10;91.20;;;;;;5080369;28;19923;-93
2022/12/23 02:49:56;;;;;;;;;;;16.10;91.20;;;;;;5097520;28;19916;-92
2022/12/23 02:52:25;;;;;;;;;;;16.10;91.20;;;;;;5081539;28;19908;-93
2022/12/23 02:54:52;;;;;;;;;;;16.10;91.20;;;;;;5081231;28;19909;-93
2022/12/23 02:57:24;;;;;;;;;;;16.10;91.20;;;;;;5081358;28;19915;-93
2022/12/23 02:59:51;;;;;;;;;;;16.10;91.20;;;;;;5079916;28;19965;-92
2022/12/23 03:02:16;;;;;;;;;;;16.10;91.20;;;;;;5079993;28;19912;-92
2022/12/23 03:04:42;;;;;;;;;;;16.10;91.20;;;;;;5079729;28;19919;-92
2022/12/23 03:07:20;;;;;;;;;;;16.10;91.20;;;;;;5082065;28;19916;-93
2022/12/23 03:09:58;;;;;;;;;;;16.10;91.30;;;;;;5082457;28;19955;-93
2022/12/23 03:13:02;;;;;;;;;;;16.10;91.30;;;;;;5081884;28;19940;-93
2022/12/23 03:15:37;;;;;;;;;;;16.10;91.30;;;;;;4980298;28;19974;-93
2022/12/23 03:18:05;;;;;;;;;;;16.10;91.30;;;;;;4983143;28;19941;-94
2022/12/23 03:20:31;;;;;;;;;;;16.10;91.30;;;;;;5040571;28;19924;-93
2022/12/23 03:23:08;;;;;;;;;;;16.10;91.30;;;;;;5085740;28;19971;-93
2022/12/23 03:25:34;;;;;;;;;;;16.10;91.30;;;;;;5084277;28;19943;-92
2022/12/23 03:28:03;;;;;;;;;;;16.10;91.30;;;;;;5084487;28;19919;-93
2022/12/23 03:30:29;;;;;;;;;;;16.10;91.30;;;;;;5086758;28;20002;-93
2022/12/23 03:33:24;;;;;;;;;;;16.10;91.40;;;;;;5085462;28;19983;-93
2022/12/23 03:36:06;;;;;;;;;;;16.10;91.40;;;;;;5061464;28;19919;-93
2022/12/23 03:38:32;;;;;;;;;;;16.10;91.30;;;;;;5082607;28;20193;-93
2022/12/23 03:41:01;;;;;;;;;;;16.10;91.30;;;;;;5082374;28;19913;-93
2022/12/23 03:43:34;;;;;;;;;;;16.10;91.30;;;;;;5083004;28;20229;-93
2022/12/23 03:46:03;;;;;;;;;;;16.10;91.30;;;;;;5083023;28;19909;-93
2022/12/23 03:48:34;;;;;;;;;;;16.10;91.40;;;;;;5081514;28;19908;-93
2022/12/23 03:51:13;;;;;;;;;;;16.00;91.40;;;;;;5081976;28;20375;-92
2022/12/23 03:53:45;;;;;;;;;;;16.00;91.40;;;;;;5081942;28;19908;-92
2022/12/23 03:56:14;;;;;;;;;;;16.00;91.40;;;;;;5081432;28;19919;-93
2022/12/23 03:58:49;;;;;;;;;;;16.00;91.40;;;;;;5080869;28;19938;-93
2022/12/23 04:01:36;;;;;;;;;;;16.00;91.40;;;;;;5080778;28;19955;-93
2022/12/23 04:04:10;;;;;;;;;;;16.00;91.40;;;;;;5080610;28;19977;-93
2022/12/23 04:06:57;;;;;;;;;;;16.00;91.40;;;;;;5081412;28;19908;-92
2022/12/23 04:09:23;;;;;;;;;;;16.00;91.40;;;;;;5030882;28;19935;-92
2022/12/23 04:11:49;;;;;;;;;;;16.00;91.50;;;;;;5079958;28;19923;-92
2022/12/23 04:14:18;;;;;;;;;;;16.00;91.70;;;;;;5080104;28;20032;-92
2022/12/23 04:16:44;;;;;;;;;;;16.00;91.50;;;;;;5080372;28;20009;-92
2022/12/23 04:19:10;;;;;;;;;;;16.00;91.50;;;;;;5080814;28;19919;-92
2022/12/23 04:21:36;;;;;;;;;;;16.00;91.50;;;;;;5079325;28;20010;-93
2022/12/23 04:24:01;;;;;;;;;;;16.00;91.60;;;;;;5079855;28;19908;-93
2022/12/23 04:26:27;;;;;;;;;;;16.00;91.60;;;;;;5080018;28;19999;-92
2022/12/23 04:28:53;;;;;;;;;;;15.90;91.50;;;;;;5081184;28;19958;-93
2022/12/23 04:31:20;;;;;;;;;;;15.90;91.50;;;;;;5081179;28;22214;-93
2022/12/23 04:33:46;;;;;;;;;;;15.90;91.50;;;;;;5080466;28;19981;-93
2022/12/23 04:36:11;;;;;;;;;;;15.90;91.60;;;;;;5079999;28;19990;-93
2022/12/23 04:38:37;;;;;;;;;;;15.90;91.60;;;;;;5079592;28;19919;-93
2022/12/23 04:41:03;;;;;;;;;;;15.90;91.60;;;;;;5080343;28;19912;-93
2022/12/23 04:43:28;;;;;;;;;;;15.90;91.60;;;;;;5079183;28;19908;-93
2022/12/23 04:45:54;;;;;;;;;;;15.90;91.60;;;;;;5079507;28;19908;-93
2022/12/23 04:48:20;;;;;;;;;;;15.90;91.60;;;;;;5080333;28;19919;-93
2022/12/23 04:50:45;;;;;;;;;;;15.90;91.60;;;;;;5082113;28;19908;-94
2022/12/23 04:53:11;;;;;;;;;;;15.90;91.60;;;;;;5081279;28;19940;-94
2022/12/23 04:55:38;;;;;;;;;;;15.90;91.60;;;;;;5082158;28;19912;-94
2022/12/23 04:58:03;;;;;;;;;;;15.90;91.60;;;;;;5081665;28;19914;-93
2022/12/23 05:00:29;;;;;;;;;;;15.90;91.60;;;;;;5080191;28;20186;-93
2022/12/23 05:02:54;;;;;;;;;;;15.90;91.60;;;;;;5079450;28;19908;-93
2022/12/23 05:05:20;;;;;;;;;;;15.90;91.70;;;;;;5079748;28;20238;-93
2022/12/23 05:07:47;;;;;;;;;;;15.90;91.70;;;;;;5080349;28;19992;-93
2022/12/23 05:10:13;;;;;;;;;;;15.90;91.70;;;;;;5079741;28;19908;-93
2022/12/23 05:12:38;;;;;;;;;;;15.90;91.70;;;;;;5082489;28;19975;-93
2022/12/23 05:15:05;;;;;;;;;;;15.90;91.80;;;;;;5077741;28;20002;-93
2022/12/23 05:17:30;;;;;;;;;;;15.90;91.80;;;;;;5077686;28;19909;-93
2022/12/23 05:19:56;;;;;;;;;;;15.80;91.80;;;;;;5077743;28;19908;-93
2022/12/23 05:22:21;;;;;;;;;;;15.80;91.80;;;;;;5076295;28;20182;-93
2022/12/23 05:24:47;;;;;;;;;;;15.80;91.80;;;;;;5075866;28;20167;-92
2022/12/23 05:27:12;;;;;;;;;;;15.80;91.90;;;;;;5076823;28;19912;-93
2022/12/23 05:29:38;;;;;;;;;;;15.80;91.90;;;;;;5077357;28;19915;-93
2022/12/23 05:32:04;;;;;;;;;;;15.80;92.00;;;;;;5075594;28;20097;-93
2022/12/23 05:34:29;;;;;;;;;;;15.80;92.00;;;;;;5076347;28;19916;-93
2022/12/23 05:36:55;;;;;;;;;;;15.70;92.00;;;;;;5076041;28;20189;-93
2022/12/23 05:39:21;;;;;;;;;;;15.80;92.10;;;;;;5076340;28;19919;-93
2022/12/23 05:41:46;;;;;;;;;;;16.00;91.60;;;;;;5076013;28;19912;-93
2022/12/23 05:44:12;;;;;;;;;;;16.80;89.10;;;;;;5094607;28;20221;-93
2022/12/23 05:46:37;;;;;;;;;;;17.70;82.60;;;;;;5075390;28;20261;-93
2022/12/23 05:49:03;;;;;;;;;;;18.20;78.40;;;;;;5075874;28;20293;-93
2022/12/23 05:51:29;;;;;;;;;;;18.30;77.30;;;;;;5080663;28;19919;-93
2022/12/23 05:53:54;;;;;;;;;;;18.30;76.70;;;;;;5081754;28;20321;-93
2022/12/23 05:56:20;;;;;;;;;;;18.40;75.90;;;;;;5081904;28;20193;-93
2022/12/23 05:58:46;;;;;;;;;;;18.60;74.80;;;;;;5081953;28;20021;-93
2022/12/23 06:01:11;;;;;;;;;;;18.60;74.00;;;;;;5084304;28;19927;-94
2022/12/23 06:03:37;;;;;;;;;;;18.70;73.50;;;;;;5083122;28;19915;-93
2022/12/23 06:06:02;;;;;;;;;;;18.80;72.90;;;;;;5084423;28;19908;-94
2022/12/23 06:08:28;;;;;;;;;;;18.90;72.30;;;;;;5083180;28;20006;-93
2022/12/23 06:10:54;;;;;;;;;;;18.90;72.00;;;;;;5082894;28;19988;-93
2022/12/23 06:13:19;;;;;;;;;;;18.90;71.80;;;;;;5081268;28;20228;-93
2022/12/23 06:15:45;;;;;;;;;;;18.80;71.90;;;;;;5080738;28;19965;-93
2022/12/23 06:18:11;;;;;;;;;;;18.80;72.20;;;;;;5079700;28;19908;-94
2022/12/23 06:20:37;;;;;;;;;;;18.80;72.60;;;;;;5079288;28;20003;-93
2022/12/23 06:23:02;;;;;;;;;;;18.70;73.00;;;;;;5079423;28;19908;-93
2022/12/23 06:25:28;;;;;;;;;;;18.60;73.40;;;;;;5078130;28;19973;-93
2022/12/23 06:27:54;;;;;;;;;;;18.50;73.60;;;;;;5078179;28;19947;-93
2022/12/23 06:30:19;;;;;;;;;;;18.50;74.20;;;;;;5077165;28;19909;-92
2022/12/23 06:32:45;;;;;;;;;;;18.40;74.80;;;;;;5076722;28;19916;-93
2022/12/23 06:35:10;;;;;;;;;;;18.30;75.30;;;;;;5078283;28;19915;-92
2022/12/23 06:37:36;;;;;;;;;;;18.20;76.00;;;;;;5079646;28;20156;-93
2022/12/23 06:40:02;;;;;;;;;;;18.10;76.70;;;;;;5076155;28;19919;-93
2022/12/23 06:42:27;;;;;;;;;;;18.00;77.20;;;;;;5076134;28;19916;-93
2022/12/23 06:44:53;;;;;;;;;;;17.90;77.90;;;;;;5076976;28;20281;-93
2022/12/23 06:47:19;;;;;;;;;;;17.90;78.60;;;;;;5077051;28;19943;-93
2022/12/23 06:49:44;;;;;;;;;;;17.80;79.20;;;;;;5077953;28;19908;-93
2022/12/23 06:52:10;;;;;;;;;;;17.70;79.60;;;;;;5077732;28;19915;-93
2022/12/23 06:54:35;;;;;;;;;;;17.60;80.20;;;;;;5077503;28;19912;-93
2022/12/23 06:57:01;;;;;;;;;;;17.50;80.80;;;;;;5077923;28;19961;-93
2022/12/23 06:59:27;;;;;;;;;;;17.50;81.50;;;;;;5077442;28;19915;-93
2022/12/23 07:01:53;;;;;;;;;;;17.40;82.10;;;;;;5075405;28;20179;-94
2022/12/23 07:04:18;;;;;;;;;;;17.30;82.70;;;;;;5078528;28;19961;-93
2022/12/23 07:06:44;;;;;;;;;;;17.20;83.30;;;;;;5076495;28;19904;-94
2022/12/23 07:09:10;;;;;;;;;;;17.20;84.00;;;;;;5076602;28;19917;-93
2022/12/23 07:11:35;;;;;;;;;;;17.10;84.50;;;;;;5073921;28;19920;-93
2022/12/23 07:14:01;;;;;;;;;;;17.00;84.90;;;;;;5074789;28;19923;-93
2022/12/23 07:16:27;;;;;;;;;;;17.00;85.50;;;;;;5075553;28;19916;-93
2022/12/23 07:18:53;;;;;;;;;;;16.90;85.90;;;;;;5075014;28;20148;-94
2022/12/23 07:21:19;;;;;;;;;;;16.90;86.30;;;;;;5073651;28;19912;-93
2022/12/23 07:23:44;;;;;;;;;;;16.80;86.60;;;;;;5073573;28;19912;-93
2022/12/23 07:26:11;;;;;;;;;;;16.80;87.10;;;;;;5074535;28;19907;-93
2022/12/23 07:28:38;;;;;;;;;;;16.70;87.30;;;;;;5074468;28;20102;-93
2022/12/23 07:31:04;;;;;;;;;;;16.70;87.60;;;;;;5074901;28;20073;-93
2022/12/23 07:33:30;;;;;;;;;;;16.70;87.80;;;;;;5075193;28;19920;-93
2022/12/23 07:35:59;;;;;;;;;;;16.60;88.10;;;;;;5073884;28;20140;-93
2022/12/23 07:38:25;;;;;;;;;;;16.60;88.40;;;;;;5073000;28;19973;-93
2022/12/23 07:40:50;;;;;;;;;;;16.60;88.50;;;;;;5073826;28;19993;-93
2022/12/23 07:43:16;;;;;;;;;;;16.60;88.50;;;;;;5074010;28;19908;-93
2022/12/23 07:45:41;;;;;;;;;;;16.60;88.50;;;;;;5073044;28;19933;-94
2022/12/23 07:48:07;;;;;;;;;;;16.60;88.40;;;;;;5072288;28;20030;-93
2022/12/23 07:50:33;;;;;;;;;;;16.70;88.30;;;;;;5071538;28;19934;-93
2022/12/23 07:52:59;;;;;;;;;;;16.70;88.00;;;;;;5070947;28;19908;-93
2022/12/23 07:55:24;;;;;;;;;;;16.80;87.50;;;;;;5070629;28;19919;-93
2022/12/23 07:57:51;;;;;;;;;;;16.90;86.90;;;;;;5071913;28;19919;-93
2022/12/23 08:00:16;;;;;;;;;;;17.00;86.30;;;;;;5070177;28;20189;-93
2022/12/23 08:02:42;;;;;;;;;;;17.10;85.50;;;;;;5070492;28;20073;-93
2022/12/23 08:05:08;;;;;;;;;;;17.20;84.70;;;;;;5070990;28;19908;-93
2022/12/23 08:07:34;;;;;;;;;;;17.30;83.90;;;;;;5071412;28;20266;-93
2022/12/23 08:09:59;;;;;;;;;;;17.40;83.00;;;;;;5072767;28;19961;-92
2022/12/23 08:12:25;;;;;;;;;;;17.50;82.30;;;;;;5072336;28;20240;-92
2022/12/23 08:14:51;;;;;;;;;;;17.60;81.50;;;;;;5073066;28;19965;-93
2022/12/23 08:17:19;;;;;;;;;;;17.60;81.10;;;;;;5071494;28;19908;-93
2022/12/23 08:19:45;;;;;;;;;;;17.60;80.70;;;;;;5071692;28;19946;-93
2022/12/23 08:22:11;;;;;;;;;;;17.60;80.60;;;;;;5071926;28;19912;-93
2022/12/23 08:24:36;;;;;;;;;;;17.60;80.70;;;;;;5071694;28;19915;-92
2022/12/23 08:27:02;;;;;;;;;;;17.60;80.70;;;;;;5071855;28;19908;-92
2022/12/23 08:29:27;;;;;;;;;;;17.60;81.10;;;;;;5071059;28;19919;-92
2022/12/23 08:31:54;;;;;;;;;;;17.60;81.80;;;;;;5070185;28;19908;-92
2022/12/23 08:34:20;;;;;;;;;;;17.50;82.60;;;;;;5071487;28;19920;-92
2022/12/23 08:36:46;;;;;;;;;;;17.40;83.20;;;;;;5071648;28;19908;-92
2022/12/23 08:39:11;;;;;;;;;;;17.40;83.80;;;;;;5070898;28;20002;-93
2022/12/23 08:41:39;;;;;;;;;;;17.30;84.20;;;;;;5069803;28;19912;-93
2022/12/23 08:44:04;;;;;;;;;;;17.30;84.50;;;;;;5070527;28;19973;-92
2022/12/23 08:46:30;;;;;;;;;;;17.20;84.60;;;;;;5069583;28;19904;-93
2022/12/23 08:48:56;;;;;;;;;;;17.20;85.00;;;;;;5070162;28;20274;-93
2022/12/23 08:51:22;;;;;;;;;;;17.20;85.30;;;;;;5069406;28;19908;-92
2022/12/23 08:53:49;;;;;;;;;;;17.10;85.70;;;;;;5068320;28;19989;-93
2022/12/23 08:56:21;;;;;;;;;;;17.00;86.60;;;;;;5068786;28;19908;-93
2022/12/23 08:58:48;;;;;;;;;;;17.00;86.50;;;;;;5069219;28;20258;-93
2022/12/23 09:01:14;;;;;;;;;;;16.90;86.80;;;;;;5076820;28;19946;-93
2022/12/23 09:03:41;;;;;;;;;;;16.90;87.10;;;;;;5069282;28;20281;-93
2022/12/23 09:06:07;;;;;;;;;;;16.90;87.50;;;;;;5069175;28;19919;-93
2022/12/23 09:08:33;;;;;;;;;;;16.80;87.80;;;;;;5070512;28;19908;-93
2022/12/23 09:10:59;;;;;;;;;;;16.80;88.10;;;;;;5069125;28;19977;-92
2022/12/23 09:13:25;;;;;;;;;;;16.80;88.30;;;;;;5068172;28;20217;-93
2022/12/23 09:15:50;;;;;;;;;;;16.70;88.70;;;;;;5068849;28;20409;-92
2022/12/23 09:18:16;;;;;;;;;;;16.70;88.90;;;;;;5070894;28;19908;-93
2022/12/23 09:20:41;;;;;;;;;;;16.60;89.10;;;;;;5069103;28;19967;-93
2022/12/23 09:23:07;;;;;;;;;;;16.60;89.30;;;;;;5068418;28;20269;-93
2022/12/23 09:25:34;;;;;;;;;;;16.60;89.60;;;;;;5068674;28;20103;-93
2022/12/23 09:28:00;;;;;;;;;;;16.60;89.60;;;;;;5068774;28;19919;-93
2022/12/23 09:30:25;;;;;;;;;;;16.60;89.70;;;;;;5070436;28;19908;-93
2022/12/23 09:32:51;;;;;;;;;;;16.60;89.80;;;;;;5067443;28;19926;-93
2022/12/23 09:35:16;;;;;;;;;;;16.60;89.90;;;;;;5069376;28;19915;-92
2022/12/23 09:37:42;;;;;;;;;;;16.60;90.00;;;;;;5069900;28;20190;-92
2022/12/23 09:40:10;;;;;;;;;;;16.60;90.00;;;;;;5069152;28;20226;-93
2022/12/23 09:42:36;;;;;;;;;;;16.50;90.10;;;;;;5069213;28;19923;-93
2022/12/23 09:45:09;;;;;;;;;;;16.50;90.10;;;;;;5067617;28;20190;-92
2022/12/23 09:47:36;;;;;;;;;;;16.50;90.20;;;;;;5069247;28;19944;-93
2022/12/23 09:50:09;;;;;;;;;;;16.50;90.30;;;;;;5070171;28;19908;-93
2022/12/23 09:52:48;;;;;;;;;;;16.50;90.40;;;;;;5068880;28;19912;-93
2022/12/23 09:55:14;;;;;;;;;;;16.40;90.40;;;;;;5067625;28;20057;-93
2022/12/23 09:57:40;;;;;;;;;;;16.40;90.50;;;;;;5069911;28;19935;-93
2022/12/23 10:00:13;;;;;;;;;;;16.40;90.50;;;;;;5067840;28;19953;-93
2022/12/23 10:03:14;;;;;;;;;;;16.40;90.50;;;;;;5069252;28;19912;-93
2022/12/23 10:05:45;;;;;;;;;;;16.40;90.60;;;;;;4968109;28;20121;-92
2022/12/23 10:08:37;;;;;;;;;;;16.50;90.70;;;;;;5051137;28;20298;-92
2022/12/23 10:11:11;;;;;;;;;;;16.60;90.30;;;;;;5062464;28;19908;-93
2022/12/23 10:13:38;;;;;;;;;;;16.80;89.80;;;;;;5068850;28;19909;-93
2022/12/23 10:16:11;;;;;;;;;;;17.00;88.80;;;;;;5069321;28;19908;-92
2022/12/23 10:18:46;;;;;;;;;;;17.20;87.70;;;;;;5067938;28;19908;-93
2022/12/23 10:21:19;;;;;;;;;;;17.30;86.60;;;;;;5069443;28;19920;-92
2022/12/23 10:23:47;;;;;;;;;;;17.40;85.40;;;;;;5067894;28;19908;-92
2022/12/23 10:26:22;;;;;;;;;;;17.60;84.20;;;;;;5068452;28;20194;-92
2022/12/23 10:29:09;;;;;;;;;;;17.70;83.10;;;;;;5070410;28;19973;-92
2022/12/23 10:31:51;;;;;;;;;;;17.80;82.40;;;;;;5069019;28;20035;-92
2022/12/23 10:34:27;;;;;;;;;;;17.80;81.90;;;;;;5054221;28;19923;-92
2022/12/23 10:37:05;;;;;;;;;;;17.80;81.60;;;;;;5071831;28;19909;-92
2022/12/23 10:39:40;;;;;;;;;;;17.80;81.60;;;;;;5073106;28;19908;-92
2022/12/23 10:42:11;;;;;;;;;;;17.80;81.90;;;;;;5071915;28;19959;-92
2022/12/23 10:44:49;;;;;;;;;;;17.70;82.30;;;;;;5074027;28;20141;-92
2022/12/23 10:47:44;;;;;;;;;;;17.60;82.60;;;;;;5072784;28;19920;-92
2022/12/23 10:50:15;;;;;;;;;;;17.60;83.00;;;;;;5050162;28;20015;-93
2022/12/23 10:52:42;;;;;;;;;;;17.50;83.60;;;;;;5074106;28;19995;-93
2022/12/23 10:55:25;;;;;;;;;;;17.50;84.10;;;;;;5072878;28;19919;-92
2022/12/23 10:57:53;;;;;;;;;;;17.40;84.40;;;;;;5072752;28;19908;-93
2022/12/23 11:00:20;;;;;;;;;;;17.40;85.00;;;;;;5072205;28;19916;-93
2022/12/23 11:02:52;;;;;;;;;;;17.30;85.30;;;;;;5074669;28;19931;-92
2022/12/23 11:05:21;;;;;;;;;;;17.30;85.70;;;;;;5072921;28;20159;-93
2022/12/23 11:07:47;;;;;;;;;;;17.20;86.10;;;;;;5073756;28;19915;-93
2022/12/23 11:10:18;;;;;;;;;;;17.20;86.70;;;;;;5072453;28;19915;-93
2022/12/23 11:12:46;;;;;;;;;;;17.10;87.10;;;;;;5090339;28;19916;-93
2022/12/23 11:15:27;;;;;;;;;;;17.00;87.50;;;;;;5076165;28;19974;-93
2022/12/23 11:18:11;;;;;;;;;;;17.00;88.10;;;;;;5072470;28;19916;-93
2022/12/23 11:20:38;;;;;;;;;;;16.90;88.50;;;;;;5072413;28;20175;-93
2022/12/23 11:23:05;;;;;;;;;;;16.90;88.90;;;;;;5070556;28;19959;-92
2022/12/23 11:25:34;;;;;;;;;;;16.90;89.10;;;;;;5071561;28;19978;-92
2022/12/23 11:28:03;;;;;;;;;;;16.80;89.50;;;;;;5074807;28;19912;-93
2022/12/23 11:30:30;;;;;;;;;;;16.80;89.60;;;;;;5077918;28;19908;-93
2022/12/23 11:32:56;;;;;;;;;;;16.70;90.00;;;;;;5112126;28;20309;-93
2022/12/23 11:35:33;;;;;;;;;;;16.80;90.10;;;;;;5092781;28;19908;-93
2022/12/23 11:37:59;;;;;;;;;;;16.80;90.20;;;;;;5085840;28;19908;-94
2022/12/23 11:40:27;;;;;;;;;;;16.70;90.30;;;;;;5092950;28;19934;-93
2022/12/23 11:42:58;;;;;;;;;;;16.70;90.40;;;;;;5070490;28;19955;-93
2022/12/23 11:45:28;;;;;;;;;;;16.70;90.40;;;;;;5071102;28;19908;-91
2022/12/23 11:47:55;;;;;;;;;;;16.70;90.40;;;;;;5072379;28;19936;-92
2022/12/23 11:50:28;;;;;;;;;;;16.70;90.40;;;;;;5071898;28;19922;-91
2022/12/23 11:53:02;;;;;;;;;;;16.70;90.50;;;;;;5071558;28;20354;-92
2022/12/23 11:55:33;;;;;;;;;;;16.70;90.50;;;;;;5071450;28;20073;-91
2022/12/23 11:58:00;;;;;;;;;;;16.70;90.50;;;;;;5069965;28;20265;-91
2022/12/23 12:00:57;;;;;;;;;;;16.70;90.50;;;;;;5071032;28;20078;-91
2022/12/23 12:03:29;;;;;;;;;;;16.70;90.50;;;;;;5072176;28;20274;-91
2022/12/23 12:06:04;;;;;;;;;;;16.80;90.40;;;;;;5074108;28;20175;-91
2022/12/23 12:08:35;;;;;;;;;;;16.80;90.40;;;;;;5072409;28;19916;-91
2022/12/23 12:11:04;;;;;;;;;;;16.90;90.60;;;;;;5073181;28;19989;-91
2022/12/23 12:13:38;;;;;;;;;;;16.90;90.50;;;;;;5071076;28;19915;-91
2022/12/23 12:16:17;;;;;;;;;;;16.90;90.30;;;;;;5070345;28;20262;-91
2022/12/23 12:19:00;;;;;;;;;;;17.00;90.30;;;;;;5068473;28;19966;-92
2022/12/23 12:21:29;;;;;;;;;;;17.10;90.10;;;;;;5068815;28;20094;-91
2022/12/23 12:24:04;;;;;;;;;;;17.10;90.00;;;;;;5070176;28;19908;-91
2022/12/23 12:26:34;;;;;;;;;;;17.10;89.90;;;;;;5075340;28;19912;-92
2022/12/23 12:29:05;;;;;;;;;;;17.10;89.80;;;;;;5073563;28;20067;-91
2022/12/23 12:31:31;;;;;;;;;;;17.10;89.90;;;;;;5073701;28;19912;-91
2022/12/23 12:34:11;;;;;;;;;;;17.10;90.00;;;;;;5071647;28;20264;-91
2022/12/23 12:36:41;;;;;;;;;;;17.10;90.00;;;;;;5073224;28;19981;-92
2022/12/23 12:39:13;;;;;;;;;;;17.10;89.90;;;;;;5071991;28;19969;-93
2022/12/23 12:41:44;;;;;;;;;;;17.00;90.30;;;;;;5071411;28;19959;-93
2022/12/23 12:44:19;;;;;;;;;;;17.00;90.10;;;;;;5071381;28;19908;-93
2022/12/23 12:47:02;;;;;;;;;;;17.00;90.20;;;;;;5068710;28;20139;-93
2022/12/23 12:49:35;;;;;;;;;;;17.00;90.30;;;;;;5071658;28;19916;-93
2022/12/23 12:52:19;;;;;;;;;;;16.90;90.40;;;;;;5069667;28;19908;-93
2022/12/23 12:54:55;;;;;;;;;;;16.90;90.50;;;;;;5070326;28;19977;-93
2022/12/23 12:57:21;;;;;;;;;;;16.90;90.60;;;;;;5069834;28;19955;-93
2022/12/23 12:59:48;;;;;;;;;;;16.90;90.70;;;;;;5067948;28;19908;-92
2022/12/23 13:02:23;;;;;;;;;;;16.80;90.80;;;;;;5071567;28;20049;-92
2022/12/23 13:05:07;;;;;;;;;;;16.80;90.90;;;;;;5070614;28;19908;-93
2022/12/23 13:07:41;;;;;;;;;;;16.80;91.00;;;;;;5072529;28;19999;-93
2022/12/23 13:10:16;;;;;;;;;;;16.80;91.10;;;;;;5075624;28;19909;-93
2022/12/23 13:12:57;;;;;;;;;;;16.80;91.20;;;;;;5072965;28;19908;-93
2022/12/23 13:15:26;;;;;;;;;;;16.70;91.20;;;;;;5075242;28;20014;-92
2022/12/23 13:17:52;;;;;;;;;;;16.70;91.30;;;;;;5070858;28;20002;-92
2022/12/23 13:20:28;;;;;;;;;;;16.70;91.40;;;;;;5075026;28;20022;-92
2022/12/23 13:22:57;;;;;;;;;;;16.70;91.50;;;;;;5074861;28;19912;-93
2022/12/23 13:25:28;;;;;;;;;;;16.70;91.60;;;;;;5074028;28;19908;-92
2022/12/23 13:27:54;;;;;;;;;;;16.60;91.60;;;;;;5074785;28;19919;-93
2022/12/23 13:30:22;;;;;;;;;;;16.60;91.70;;;;;;5073961;28;19909;-93
2022/12/23 13:33:05;;;;;;;;;;;16.60;91.80;;;;;;5077213;28;19916;-93
2022/12/23 13:35:50;;;;;;;;;;;16.60;91.80;;;;;;5072218;28;20015;-93
2022/12/23 13:38:18;;;;;;;;;;;16.60;91.80;;;;;;5074925;28;19938;-93
2022/12/23 13:41:09;;;;;;;;;;;16.60;91.90;;;;;;5073589;28;19908;-93
2022/12/23 13:43:40;;;;;;;;;;;16.60;92.30;;;;;;5072840;28;19916;-93
2022/12/23 13:46:10;;;;;;;;;;;16.60;92.10;;;;;;5073339;28;20238;-92
2022/12/23 13:48:42;;;;;;;;;;;16.60;92.10;;;;;;5074490;28;19916;-92
2022/12/23 13:51:15;;;;;;;;;;;16.50;92.20;;;;;;5073006;28;19916;-92
2022/12/23 13:53:46;;;;;;;;;;;16.50;92.30;;;;;;5072762;28;19919;-92
2022/12/23 13:56:31;;;;;;;;;;;16.50;92.40;;;;;;5070305;28;20436;-92
2022/12/23 13:58:57;;;;;;;;;;;16.50;92.40;;;;;;5069043;28;19908;-93
2022/12/23 14:01:34;;;;;;;;;;;16.50;92.40;;;;;;5072053;28;19912;-92
2022/12/23 14:04:18;;;;;;;;;;;16.50;92.30;;;;;;5072125;28;19908;-92
2022/12/23 14:06:46;;;;;;;;;;;16.50;92.40;;;;;;5071453;28;19919;-93
2022/12/23 14:09:13;;;;;;;;;;;16.50;92.50;;;;;;5071737;28;19908;-93
2022/12/23 14:11:39;;;;;;;;;;;16.50;92.90;;;;;;5075288;28;19919;-92
2022/12/23 14:14:06;;;;;;;;;;;16.60;93.00;;;;;;5075533;28;19998;-93
2022/12/23 14:16:53;;;;;;;;;;;16.60;92.90;;;;;;5077753;28;19915;-92
2022/12/23 14:19:28;;;;;;;;;;;16.80;92.60;;;;;;5074621;28;19974;-92
2022/12/23 14:21:56;;;;;;;;;;;16.90;92.20;;;;;;5075486;28;20208;-92
2022/12/23 14:24:57;;;;;;;;;;;17.00;91.90;;;;;;5075468;28;19981;-92
2022/12/23 14:27:30;;;;;;;;;;;17.10;91.60;;;;;;4973345;28;19921;-92
2022/12/23 14:30:08;;;;;;;;;;;17.20;91.20;;;;;;5060811;28;19908;-92
2022/12/23 14:32:40;;;;;;;;;;;17.30;91.10;;;;;;5074634;28;19934;-92
2022/12/23 14:35:15;;;;;;;;;;;17.30;90.90;;;;;;5076031;28;19915;-91
2022/12/23 14:37:41;;;;;;;;;;;17.30;90.70;;;;;;5076836;28;19908;-92
2022/12/23 14:40:26;;;;;;;;;;;17.40;90.80;;;;;;5074188;28;19919;-92
2022/12/23 14:43:11;;;;;;;;;;;17.30;90.80;;;;;;5092093;28;20064;-92
2022/12/23 14:45:47;;;;;;;;;;;17.30;90.90;;;;;;5073859;28;20150;-91
2022/12/23 14:48:31;;;;;;;;;;;17.30;91.10;;;;;;5071421;28;20180;-91
2022/12/23 14:51:15;;;;;;;;;;;17.20;91.20;;;;;;5073902;28;19908;-91
2022/12/23 14:53:55;;;;;;;;;;;17.10;91.30;;;;;;5071182;28;20519;-92
2022/12/23 14:56:22;;;;;;;;;;;17.10;91.50;;;;;;5071495;28;19909;-92
2022/12/23 14:58:51;;;;;;;;;;;17.00;91.60;;;;;;5073115;28;19977;-92
2022/12/23 15:01:19;;;;;;;;;;;17.00;91.80;;;;;;5072334;28;20010;-91
2022/12/23 15:03:47;;;;;;;;;;;16.90;91.90;;;;;;5073522;28;20278;-92